Aeroporto :
LOGIN :

Iscrizione | Disclaimer

   EN    FR    IT 

 










Sommario :    VFR   VFR Marginale   IFR   IFR Intensivo   IFR Molto Intensivo
Visibilità : 
Base nubi : 
>= 8 km
>= 3000ft
5 / 8 km
1000 / 3000 ft
1500m / 5 km
500 / 1000 ft
800 / 1500m
200 / 500 ft
< 800m
< 200 ft
Simboli :   Temporali  Nebbia  Neve Forte  Precipitazioni Forti  Vento > 20 kt
SIGMETs :   Varie  Temporali  Ghiacco  Turbolenza  Onda orograficha  Ceneri Vulcaniche






- Altitudine del aeroporto : 274 ft
- Codice IATA : PUY


LDPL - Pula

ULTIMO METAR :
  • 280500Z 07003KT CAVOK 17/14 Q1014 NOSIG

METARs OBSOLETI :
  • 280430Z 08004KT CAVOK 15/13 Q1014 NOSIG
  • 280400Z 06003KT CAVOK 13/12 Q1015 NOSIG
  • 280330Z 07004KT CAVOK 13/12 Q1014 NOSIG
  • 280300Z 07003KT 030V090 CAVOK 13/13 Q1015 NOSIG
  • 280230Z 07003KT CAVOK 13/13 Q1015 NOSIG
  • 280200Z 07003KT CAVOK 13/13 Q1015 NOSIG
  • 280130Z 07003KT CAVOK 14/14 Q1015
  • 280100Z 07004KT CAVOK 13/13 Q1015
  • 280030Z 07003KT CAVOK 13/13 Q1015
  • 280000Z 08003KT CAVOK 13/13 Q1016

TAF TAF LDPL
Valido dal 28 a 00 ore il 29 a 00 ore UTC


272325Z 2800/2900 VRB02KT CAVOK TX24/2812Z TN12/2804Z
BECMG 2809/2811 27008KT
PROB30
TEMPO 2814/2819 -TSRA FEW030CB
BECMG 2815/2817 07010KT



MetMap, La meteo Aeronautica in un colpo d'occhio ! - Copyright ORBIFLY Dicembre 2007 - Disclaimer

ORBIFLY MET'MAP TEAM :

Programmazione e sviluppo : Alexandra Zaïnal
Concezione : Baudouin d'Aumeries
Supporto tecnico e logistico : Manuel Goepfert
Aiuto : Marc-Olivier Méhu
Aiuto per la traduzione : Arnaldo La Scala




FONTI E CREDITI :

   NOAA